Sevenpersons, Canada
Current Conditions -  °F | °C
As of 12:00 PM on Friday 28 Nov 2014 (Local Time) from CYXH Reporting Station
Light Snow Light Snow  
Wind Chill: -12°   Ceiling: 600
Heat Index:   Visibility: 6mi
Dew Point:   Wind: 24mph
Humidity: 92%   Direction: 290°WNW
Pressure: 29.61"   Gusts: NA
Location:  49.87°N, 110.9°W
Report Text: CYXH 281900Z 29021KT 6SM -SN DRSN OVC006 M13/M14 A2961 RMK ST8 SLP068
Loading
Personal Weather Stations






























Interactive Weather Map New forecast layout! Learn more

10-Day Weather Forecast

Advertisements
Track Severe Weather on mobile